Time;durP1;ratioP1;P1;durP2;ratioP2;P2;SDS_P1;SDS_P2;PMS_P1;PMS_P2;Temp;Humidity;BMP_temperature;BMP_pressure;BME280_temperature;BME280_humidity;BME280_pressure;Samples;Min_cycle;Max_cycle;Signal;HPM_P1;HPM_P2
2022/10/18 00:01:42;;;;;;;;;17.75;11.00;;;;;;;;5062972;28;62867;-78
2022/10/18 00:04:08;;;;;;;;;21.75;13.50;;;;;;;;5062857;28;62396;-78
2022/10/18 00:06:33;;;;;;;;;15.75;13.50;;;;;;;;5063182;28;62085;-78
2022/10/18 00:08:58;;;;;;;;;15.00;14.00;;;;;;;;5061945;28;62679;-78
2022/10/18 00:11:23;;;;;;;;;13.25;11.25;;;;;;;;5044761;28;61886;-78
2022/10/18 00:13:49;;;;;;;;;18.00;15.25;;;;;;;;5062716;28;61751;-78
2022/10/18 00:16:15;;;;;;;;;14.33;12.67;;;;;;;;5062624;28;61719;-78
2022/10/18 00:18:40;;;;;;;;;14.25;12.25;;;;;;;;5061766;28;62336;-78
2022/10/18 00:21:07;;;;;;;;;12.75;11.50;;;;;;;;5062719;28;62237;-78
2022/10/18 00:23:33;;;;;;;;;15.50;13.75;;;;;;;;5062719;28;61911;-78
2022/10/18 00:26:02;;;;;;;;;13.00;11.25;;;;;;;;5060821;28;61910;-78
2022/10/18 00:28:28;;;;;;;;;18.75;15.00;;;;;;;;5023865;28;63854;-77
2022/10/18 00:30:53;;;;;;;;;19.00;16.00;;;;;;;;5042351;28;61720;-78
2022/10/18 00:33:18;;;;;;;;;15.25;13.25;;;;;;;;5042481;28;61720;-78
2022/10/18 00:35:44;;;;;;;;;14.00;10.00;;;;;;;;5042902;28;61914;-78
2022/10/18 00:38:09;;;;;;;;;15.75;13.75;;;;;;;;5023789;28;63688;-78
2022/10/18 00:40:34;;;;;;;;;20.25;14.50;;;;;;;;5042378;28;62034;-78
2022/10/18 00:43:00;;;;;;;;;12.50;12.50;;;;;;;;5041841;28;61847;-78
2022/10/18 00:45:25;;;;;;;;;15.00;12.50;;;;;;;;5024471;28;61899;-78
2022/10/18 00:47:57;;;;;;;;;16.25;14.00;;;;;;;;5041577;28;61866;-78
2022/10/18 00:50:23;;;;;;;;;15.50;14.25;;;;;;;;5023524;28;61883;-78
2022/10/18 00:52:52;;;;;;;;;18.75;13.50;;;;;;;;5023969;28;61906;-78
2022/10/18 00:55:17;;;;;;;;;14.00;12.50;;;;;;;;5044933;28;61933;-78
2022/10/18 00:57:43;;;;;;;;;16.50;13.25;;;;;;;;5042564;28;65030;-78
2022/10/18 01:00:09;;;;;;;;;11.25;10.00;;;;;;;;5044062;28;62152;-78
2022/10/18 01:02:39;;;;;;;;;13.25;13.00;;;;;;;;5062160;28;61775;-78
2022/10/18 01:05:04;;;;;;;;;17.00;15.00;;;;;;;;5043751;28;62001;-78
2022/10/18 01:07:36;;;;;;;;;12.75;12.00;;;;;;;;5061485;28;61817;-78
2022/10/18 01:10:20;;;;;;;;;16.25;12.25;;;;;;;;5043726;28;61747;-78
2022/10/18 01:13:04;;;;;;;;;14.25;14.00;;;;;;;;5061846;28;61849;-78
2022/10/18 01:15:32;;;;;;;;;14.00;11.50;;;;;;;;5061922;28;61689;-77
2022/10/18 01:18:07;;;;;;;;;15.00;12.75;;;;;;;;5061452;28;61830;-77
2022/10/18 01:20:41;;;;;;;;;19.00;13.00;;;;;;;;5061509;28;61889;-77
2022/10/18 01:23:13;;;;;;;;;14.00;11.00;;;;;;;;5061929;28;62072;-78
2022/10/18 01:25:47;;;;;;;;;16.50;13.25;;;;;;;;5062136;28;61701;-77
2022/10/18 01:28:15;;;;;;;;;13.25;10.75;;;;;;;;5020843;28;61787;-78
2022/10/18 01:30:46;;;;;;;;;25.50;12.50;;;;;;;;5021783;28;61835;-78
2022/10/18 01:33:11;;;;;;;;;15.75;12.00;;;;;;;;5021551;28;61878;-78
2022/10/18 01:35:39;;;;;;;;;21.00;14.25;;;;;;;;5021768;28;61965;-78
2022/10/18 01:38:08;;;;;;;;;15.00;14.00;;;;;;;;5021378;28;61851;-78
2022/10/18 01:40:34;;;;;;;;;22.50;16.00;;;;;;;;5003605;28;61800;-77
2022/10/18 01:43:00;;;;;;;;;14.75;12.00;;;;;;;;5019930;28;61837;-77
2022/10/18 01:45:26;;;;;;;;;16.25;14.50;;;;;;;;5021578;28;61852;-77
2022/10/18 01:47:53;;;;;;;;;14.25;12.50;;;;;;;;5022065;28;62737;-78
2022/10/18 01:50:27;;;;;;;;;16.75;15.50;;;;;;;;5020685;28;61735;-78
2022/10/18 01:52:52;;;;;;;;;18.00;12.25;;;;;;;;5003300;28;61759;-78
2022/10/18 01:55:21;;;;;;;;;19.50;15.50;;;;;;;;5020671;28;62231;-78
2022/10/18 01:58:02;;;;;;;;;25.50;17.75;;;;;;;;5021565;28;63671;-78
2022/10/18 02:00:53;;;;;;;;;13.50;12.25;;;;;;;;5040710;28;62110;-78
2022/10/18 02:03:18;;;;;;;;;17.50;15.50;;;;;;;;5037731;28;62056;-78
2022/10/18 02:06:06;;;;;;;;;16.00;12.00;;;;;;;;5023195;28;61796;-78
2022/10/18 02:08:31;;;;;;;;;15.25;15.25;;;;;;;;5022264;28;64769;-78
2022/10/18 02:11:07;;;;;;;;;19.25;13.25;;;;;;;;5043562;28;61862;-78
2022/10/18 02:13:56;;;;;;;;;19.00;10.75;;;;;;;;5044414;28;61694;-78
2022/10/18 02:16:34;;;;;;;;;17.00;15.75;;;;;;;;5023259;28;61905;-78
2022/10/18 02:19:04;;;;;;;;;20.00;15.75;;;;;;;;5043631;28;61920;-78
2022/10/18 02:21:30;;;;;;;;;18.75;17.50;;;;;;;;5044191;28;61919;-78
2022/10/18 02:23:57;;;;;;;;;15.75;14.75;;;;;;;;5026427;28;61673;-78
2022/10/18 02:26:22;;;;;;;;;14.25;13.00;;;;;;;;5026177;28;61914;-77
2022/10/18 02:28:47;;;;;;;;;15.50;12.25;;;;;;;;5043721;28;61951;-78
2022/10/18 02:31:18;;;;;;;;;18.00;15.50;;;;;;;;5044348;28;61762;-78
2022/10/18 02:33:51;;;;;;;;;16.00;15.75;;;;;;;;5026157;28;61720;-78
2022/10/18 02:36:39;;;;;;;;;16.50;13.75;;;;;;;;5044587;28;61715;-78
2022/10/18 02:39:13;;;;;;;;;17.25;15.75;;;;;;;;5043481;28;61705;-78
2022/10/18 02:41:38;;;;;;;;;17.50;16.25;;;;;;;;5043785;28;61954;-78
2022/10/18 02:44:04;;;;;;;;;15.50;13.75;;;;;;;;5044063;28;61770;-78
2022/10/18 02:46:29;;;;;;;;;13.25;11.00;;;;;;;;5044128;28;62302;-78
2022/10/18 02:48:54;;;;;;;;;18.00;15.50;;;;;;;;5042954;28;62649;-78
2022/10/18 02:51:19;;;;;;;;;17.00;15.25;;;;;;;;5044141;28;61723;-78
2022/10/18 02:53:44;;;;;;;;;20.75;17.50;;;;;;;;5022017;28;62055;-78
2022/10/18 02:56:10;;;;;;;;;15.00;13.00;;;;;;;;5024298;28;61778;-78
2022/10/18 02:58:35;;;;;;;;;14.75;14.50;;;;;;;;5023163;28;61918;-78
2022/10/18 03:01:00;;;;;;;;;17.50;16.75;;;;;;;;5022277;28;61876;-78
2022/10/18 03:03:26;;;;;;;;;14.25;14.00;;;;;;;;5023980;28;61803;-78
2022/10/18 03:05:51;;;;;;;;;19.00;12.75;;;;;;;;5022633;28;61884;-78
2022/10/18 03:08:16;;;;;;;;;20.00;15.75;;;;;;;;5023063;28;61924;-78
2022/10/18 03:10:45;;;;;;;;;17.00;17.00;;;;;;;;5022180;28;61881;-78
2022/10/18 03:13:10;;;;;;;;;15.50;14.00;;;;;;;;5023294;28;61686;-78
2022/10/18 03:15:36;;;;;;;;;16.00;15.25;;;;;;;;5023630;28;61784;-77
2022/10/18 03:18:01;;;;;;;;;24.25;15.75;;;;;;;;5023060;28;61833;-78
2022/10/18 03:20:26;;;;;;;;;15.00;15.00;;;;;;;;5022732;28;61978;-78
2022/10/18 03:22:51;;;;;;;;;13.50;11.25;;;;;;;;5023269;28;61779;-77
2022/10/18 03:25:17;;;;;;;;;14.00;13.50;;;;;;;;5023821;28;61868;-78
2022/10/18 03:27:42;;;;;;;;;19.50;17.50;;;;;;;;5022420;28;62024;-78
2022/10/18 03:30:08;;;;;;;;;21.75;18.00;;;;;;;;5022128;28;61898;-78
2022/10/18 03:32:33;;;;;;;;;18.50;16.50;;;;;;;;5023320;28;61699;-78
2022/10/18 03:34:58;;;;;;;;;18.00;15.75;;;;;;;;5020859;28;61886;-78
2022/10/18 03:37:24;;;;;;;;;19.50;16.25;;;;;;;;5002821;28;61868;-78
2022/10/18 03:39:49;;;;;;;;;16.25;15.50;;;;;;;;5003165;28;61687;-78
2022/10/18 03:42:14;;;;;;;;;21.75;18.75;;;;;;;;5003404;28;61778;-78
2022/10/18 03:44:39;;;;;;;;;22.25;16.25;;;;;;;;5003335;28;61834;-78
2022/10/18 03:47:05;;;;;;;;;26.50;20.50;;;;;;;;5002825;28;63031;-78
2022/10/18 03:49:30;;;;;;;;;19.00;16.75;;;;;;;;5003069;28;61918;-78
2022/10/18 03:51:55;;;;;;;;;21.50;17.75;;;;;;;;5005748;28;61843;-78
2022/10/18 03:54:20;;;;;;;;;17.25;16.25;;;;;;;;5043064;28;61814;-78
2022/10/18 03:56:46;;;;;;;;;15.25;14.75;;;;;;;;5039350;28;63626;-78
2022/10/18 03:59:11;;;;;;;;;14.75;14.75;;;;;;;;5044760;28;61860;-77
2022/10/18 04:01:36;;;;;;;;;23.25;16.75;;;;;;;;5062970;28;61973;-78
2022/10/18 04:04:01;;;;;;;;;20.00;16.25;;;;;;;;5044789;28;62172;-78
2022/10/18 04:06:27;;;;;;;;;21.50;17.75;;;;;;;;5062327;28;62772;-78
2022/10/18 04:08:53;;;;;;;;;19.50;16.75;;;;;;;;5062695;28;61782;-78
2022/10/18 04:11:18;;;;;;;;;19.25;15.00;;;;;;;;5063083;28;61906;-77
2022/10/18 04:13:44;;;;;;;;;25.25;17.50;;;;;;;;5062298;28;61914;-78
2022/10/18 04:16:09;;;;;;;;;19.25;14.50;;;;;;;;5062319;28;61758;-78
2022/10/18 04:18:34;;;;;;;;;21.75;17.25;;;;;;;;5062356;28;61837;-78
2022/10/18 04:20:59;;;;;;;;;24.50;19.00;;;;;;;;5062336;28;61809;-77
2022/10/18 04:23:25;;;;;;;;;22.00;17.25;;;;;;;;5063083;28;61822;-78
2022/10/18 04:25:50;;;;;;;;;27.75;24.75;;;;;;;;5061854;28;62820;-78
2022/10/18 04:28:15;;;;;;;;;19.25;15.00;;;;;;;;5043203;28;61888;-78
2022/10/18 04:30:41;;;;;;;;;18.75;17.00;;;;;;;;5042653;28;61905;-78
2022/10/18 04:33:06;;;;;;;;;17.25;15.25;;;;;;;;5041395;28;61756;-78
2022/10/18 04:35:31;;;;;;;;;21.00;16.50;;;;;;;;5041576;28;61898;-78
2022/10/18 04:37:56;;;;;;;;;19.50;13.75;;;;;;;;5042201;28;62049;-78
2022/10/18 04:40:22;;;;;;;;;22.50;18.25;;;;;;;;5042539;28;62029;-78
2022/10/18 04:42:47;;;;;;;;;17.00;13.25;;;;;;;;5042371;28;61731;-78
2022/10/18 04:45:12;;;;;;;;;18.75;17.50;;;;;;;;5041441;28;61828;-78
2022/10/18 04:47:38;;;;;;;;;18.00;13.25;;;;;;;;5042048;28;61900;-78
2022/10/18 04:50:03;;;;;;;;;19.50;16.75;;;;;;;;5040874;28;62025;-78
2022/10/18 04:52:29;;;;;;;;;18.25;16.00;;;;;;;;5042288;28;62156;-77
2022/10/18 04:54:54;;;;;;;;;26.75;16.75;;;;;;;;5040861;28;61935;-78
2022/10/18 04:57:19;;;;;;;;;24.00;15.75;;;;;;;;5043648;28;61977;-78
2022/10/18 04:59:44;;;;;;;;;25.00;20.25;;;;;;;;5044150;28;61833;-78
2022/10/18 05:02:11;;;;;;;;;22.75;18.75;;;;;;;;5044074;28;61759;-78
2022/10/18 05:04:38;;;;;;;;;18.50;16.00;;;;;;;;5060850;28;62578;-79
2022/10/18 05:07:07;;;;;;;;;20.25;15.75;;;;;;;;5043460;28;62282;-78
2022/10/18 05:09:32;;;;;;;;;17.50;14.50;;;;;;;;5043882;28;61884;-78
2022/10/18 05:11:58;;;;;;;;;24.50;17.75;;;;;;;;5062981;28;61774;-78
2022/10/18 05:14:23;;;;;;;;;15.50;11.75;;;;;;;;5061252;28;61698;-78
2022/10/18 05:16:48;;;;;;;;;17.25;14.50;;;;;;;;5061988;28;61981;-78
2022/10/18 05:19:14;;;;;;;;;24.75;16.25;;;;;;;;5055702;28;62013;-78
2022/10/18 05:21:39;;;;;;;;;15.50;14.00;;;;;;;;5051741;28;61743;-79
2022/10/18 05:24:05;;;;;;;;;21.75;16.75;;;;;;;;5056768;28;61909;-78
2022/10/18 05:26:30;;;;;;;;;19.50;14.25;;;;;;;;5057426;28;62054;-78
2022/10/18 05:28:55;;;;;;;;;20.00;17.00;;;;;;;;5041898;28;62260;-77
2022/10/18 05:31:20;;;;;;;;;16.25;15.25;;;;;;;;5040894;28;61831;-76
2022/10/18 05:33:46;;;;;;;;;20.25;17.00;;;;;;;;5040254;28;62661;-76
2022/10/18 05:36:11;;;;;;;;;19.25;14.50;;;;;;;;5040765;28;61905;-76
2022/10/18 05:38:37;;;;;;;;;16.25;15.50;;;;;;;;5040572;28;61964;-77
2022/10/18 05:41:03;;;;;;;;;20.25;16.50;;;;;;;;5039840;28;61980;-78
2022/10/18 05:43:29;;;;;;;;;19.50;17.50;;;;;;;;5039776;28;61877;-78
2022/10/18 05:45:54;;;;;;;;;15.25;15.25;;;;;;;;5025531;28;62114;-78
2022/10/18 05:48:20;;;;;;;;;17.50;15.25;;;;;;;;5042727;28;61893;-78
2022/10/18 05:50:45;;;;;;;;;24.50;18.25;;;;;;;;5025593;28;62046;-78
2022/10/18 05:53:10;;;;;;;;;16.25;13.50;;;;;;;;5024026;28;63925;-80
2022/10/18 05:55:37;;;;;;;;;17.75;16.00;;;;;;;;5045257;28;61767;-78
2022/10/18 05:58:03;;;;;;;;;15.50;15.50;;;;;;;;5042005;28;62056;-78
2022/10/18 06:00:28;;;;;;;;;19.75;15.75;;;;;;;;5024014;28;61783;-78
2022/10/18 06:02:54;;;;;;;;;23.50;14.75;;;;;;;;5042450;28;63171;-77
2022/10/18 06:05:19;;;;;;;;;17.75;14.00;;;;;;;;5024742;28;61878;-79
2022/10/18 06:07:44;;;;;;;;;19.75;15.25;;;;;;;;5026054;28;62292;-79
2022/10/18 06:10:09;;;;;;;;;16.25;16.25;;;;;;;;5044216;28;62199;-79
2022/10/18 06:12:35;;;;;;;;;20.50;14.00;;;;;;;;5043545;28;61812;-79
2022/10/18 06:15:00;;;;;;;;;18.00;12.50;;;;;;;;5044421;28;61758;-79
2022/10/18 06:17:25;;;;;;;;;19.00;15.25;;;;;;;;5044024;28;62112;-79
2022/10/18 06:19:50;;;;;;;;;14.00;12.50;;;;;;;;5043967;28;61884;-78
2022/10/18 06:22:16;;;;;;;;;15.75;13.00;;;;;;;;5043341;28;61879;-78
2022/10/18 06:24:41;;;;;;;;;15.00;12.00;;;;;;;;5026160;28;61844;-78
2022/10/18 06:27:09;;;;;;;;;16.50;12.50;;;;;;;;5035281;28;62004;-79
2022/10/18 06:29:35;;;;;;;;;15.50;12.00;;;;;;;;5064070;28;61973;-78
2022/10/18 06:32:00;;;;;;;;;15.50;12.75;;;;;;;;5036407;28;63947;-78
2022/10/18 06:34:26;;;;;;;;;14.50;13.00;;;;;;;;5023502;28;62010;-78
2022/10/18 06:36:51;;;;;;;;;13.25;13.25;;;;;;;;5022727;28;61803;-79
2022/10/18 06:39:16;;;;;;;;;15.50;13.75;;;;;;;;5023999;28;61887;-78
2022/10/18 06:41:41;;;;;;;;;13.75;13.25;;;;;;;;5023496;28;62642;-79
2022/10/18 06:44:12;;;;;;;;;21.50;12.50;;;;;;;;5023909;28;62063;-78
2022/10/18 06:46:38;;;;;;;;;14.00;10.00;;;;;;;;5023699;28;61775;-78
2022/10/18 06:49:04;;;;;;;;;12.00;11.00;;;;;;;;5024649;28;61906;-80
2022/10/18 06:51:29;;;;;;;;;19.25;14.00;;;;;;;;5004814;28;63750;-80
2022/10/18 06:53:54;;;;;;;;;12.25;11.75;;;;;;;;5023342;28;61968;-81
2022/10/18 06:56:19;;;;;;;;;14.00;11.50;;;;;;;;5045253;28;61972;-79
2022/10/18 06:58:45;;;;;;;;;11.75;11.75;;;;;;;;5052116;28;62010;-78
2022/10/18 07:01:12;;;;;;;;;12.50;10.50;;;;;;;;5022880;28;64701;-79
2022/10/18 07:03:37;;;;;;;;;11.00;10.00;;;;;;;;5043324;28;61953;-78
2022/10/18 07:06:04;;;;;;;;;14.75;14.75;;;;;;;;5043317;28;61942;-78
2022/10/18 07:08:29;;;;;;;;;16.25;14.00;;;;;;;;5025473;28;61783;-79
2022/10/18 07:10:57;;;;;;;;;14.00;12.00;;;;;;;;5024764;28;64992;-78
2022/10/18 07:13:23;;;;;;;;;17.00;11.50;;;;;;;;5024299;28;61855;-79
2022/10/18 07:15:58;;;;;;;;;10.25;9.00;;;;;;;;5042806;28;62062;-78
2022/10/18 07:18:24;;;;;;;;;14.00;10.50;;;;;;;;5042630;28;61889;-78
2022/10/18 07:20:49;;;;;;;;;14.25;10.75;;;;;;;;5023192;28;62878;-78
2022/10/18 07:23:14;;;;;;;;;14.75;11.25;;;;;;;;5042726;28;61795;-79
2022/10/18 07:25:39;;;;;;;;;14.00;13.00;;;;;;;;5043355;28;62126;-78
2022/10/18 07:28:05;;;;;;;;;16.00;13.25;;;;;;;;5043558;28;61914;-78
2022/10/18 07:30:30;;;;;;;;;14.50;13.50;;;;;;;;5042345;28;61762;-77
2022/10/18 07:32:55;;;;;;;;;14.50;13.50;;;;;;;;5042591;28;61854;-78
2022/10/18 07:35:20;;;;;;;;;11.00;10.67;;;;;;;;5040944;28;62010;-79
2022/10/18 07:37:46;;;;;;;;;18.00;13.50;;;;;;;;5021692;28;61850;-78
2022/10/18 07:40:11;;;;;;;;;17.00;12.00;;;;;;;;5027747;28;63476;-79
2022/10/18 07:42:37;;;;;;;;;13.75;13.75;;;;;;;;5042751;28;61735;-79
2022/10/18 07:45:02;;;;;;;;;13.75;12.25;;;;;;;;5042732;28;61895;-79
2022/10/18 07:47:28;;;;;;;;;14.50;11.00;;;;;;;;5024959;28;61774;-79
2022/10/18 07:49:53;;;;;;;;;10.50;10.00;;;;;;;;5024067;28;63723;-78
2022/10/18 07:52:18;;;;;;;;;14.00;11.33;;;;;;;;5018058;28;61922;-78
2022/10/18 07:54:43;;;;;;;;;14.25;10.50;;;;;;;;5001743;28;61726;-79
2022/10/18 07:57:08;;;;;;;;;10.50;10.00;;;;;;;;5019711;28;61778;-78
2022/10/18 07:59:34;;;;;;;;;12.33;12.00;;;;;;;;5020527;28;65003;-78
2022/10/18 08:01:59;;;;;;;;;9.75;9.00;;;;;;;;5022928;28;61756;-79
2022/10/18 08:04:24;;;;;;;;;14.50;10.75;;;;;;;;5020952;28;61934;-78
2022/10/18 08:06:50;;;;;;;;;11.50;9.50;;;;;;;;5022864;28;61670;-78
2022/10/18 08:09:15;;;;;;;;;12.50;10.50;;;;;;;;5020783;28;63700;-78
2022/10/18 08:11:40;;;;;;;;;12.75;11.25;;;;;;;;5020733;28;61885;-79
2022/10/18 08:14:05;;;;;;;;;9.00;9.00;;;;;;;;5021118;28;61894;-78
2022/10/18 08:16:31;;;;;;;;;13.00;10.00;;;;;;;;5021257;28;61797;-79
2022/10/18 08:18:57;;;;;;;;;11.50;10.00;;;;;;;;5021791;28;61849;-78
2022/10/18 08:21:22;;;;;;;;;10.50;8.50;;;;;;;;5022276;28;61743;-78
2022/10/18 08:23:48;;;;;;;;;8.33;5.67;;;;;;;;5022250;28;61837;-78
2022/10/18 08:26:15;;;;;;;;;8.33;8.33;;;;;;;;5020918;28;61827;-78
2022/10/18 08:28:40;;;;;;;;;10.33;8.00;;;;;;;;5000228;28;64043;-78
2022/10/18 08:31:06;;;;;;;;;9.00;7.00;;;;;;;;5002374;28;61757;-79
2022/10/18 08:33:32;;;;;;;;;11.50;11.50;;;;;;;;5002292;28;61947;-79
2022/10/18 08:35:59;;;;;;;;;12.50;7.00;;;;;;;;5001477;28;62173;-79
2022/10/18 08:38:24;;;;;;;;;10.33;9.33;;;;;;;;5001511;28;61876;-80
2022/10/18 08:40:49;;;;;;;;;11.67;9.33;;;;;;;;5012506;28;61955;-79
2022/10/18 08:43:25;;;;;;;;;13.00;8.00;;;;;;;;5022130;28;61930;-79
2022/10/18 08:45:52;;;;;;;;;16.00;9.33;;;;;;;;5022189;28;61714;-78
2022/10/18 08:48:40;;;;;;;;;14.67;8.33;;;;;;;;5021186;28;63186;-78
2022/10/18 08:51:12;;;;;;;;;7.33;7.33;;;;;;;;5016265;28;62193;-79
2022/10/18 08:53:50;;;;;;;;;6.00;6.00;;;;;;;;5037039;28;61776;-76
2022/10/18 08:56:20;;;;;;;;;10.25;10.00;;;;;;;;5034518;28;62141;-78
2022/10/18 08:58:45;;;;;;;;;13.67;11.33;;;;;;;;5043142;28;63741;-78
2022/10/18 09:01:17;;;;;;;;;10.67;8.67;;;;;;;;5062217;28;61770;-79
2022/10/18 09:03:54;;;;;;;;;10.67;9.33;;;;;;;;5061794;28;61805;-79
2022/10/18 09:06:27;;;;;;;;;10.67;7.33;;;;;;;;5061895;28;61780;-79
2022/10/18 09:08:59;;;;;;;;;11.33;9.00;;;;;;;;5061365;28;61911;-79
2022/10/18 09:11:39;;;;;;;;;13.67;9.33;;;;;;;;5043457;28;62038;-79
2022/10/18 09:14:23;;;;;;;;;8.67;8.67;;;;;;;;5061929;28;61863;-79
2022/10/18 09:16:48;;;;;;;;;12.00;8.33;;;;;;;;5043662;28;62111;-79
2022/10/18 09:19:26;;;;;;;;;19.50;19.50;;;;;;;;5064283;28;61890;-78
2022/10/18 09:21:53;;;;;;;;;9.67;9.67;;;;;;;;5068283;28;61780;-79
2022/10/18 09:24:33;;;;;;;;;10.00;9.67;;;;;;;;5068418;28;61794;-79
2022/10/18 09:27:18;;;;;;;;;10.00;8.00;;;;;;;;5060129;28;61911;-79
2022/10/18 09:29:46;;;;;;;;;12.00;9.00;;;;;;;;5047406;28;61855;-79
2022/10/18 09:32:30;;;;;;;;;8.67;7.00;;;;;;;;5048301;28;61832;-78
2022/10/18 09:35:16;;;;;;;;;8.33;8.33;;;;;;;;5029940;28;61732;-79
2022/10/18 09:37:42;;;;;;;;;11.00;7.33;;;;;;;;5047266;28;62246;-79
2022/10/18 09:40:21;;;;;;;;;8.00;8.00;;;;;;;;5040984;28;63754;-79
2022/10/18 09:42:54;;;;;;;;;7.00;6.00;;;;;;;;5048193;28;61734;-79
2022/10/18 09:45:25;;;;;;;;;6.00;6.00;;;;;;;;5047993;28;61781;-78
2022/10/18 09:48:02;;;;;;;;;8.00;7.00;;;;;;;;5030020;28;62128;-79
2022/10/18 09:50:30;;;;;;;;;6.67;6.00;;;;;;;;5047077;28;61724;-79
2022/10/18 09:53:03;;;;;;;;;9.00;7.67;;;;;;;;5029593;28;61841;-78
2022/10/18 09:55:33;;;;;;;;;8.00;8.00;;;;;;;;5047947;28;62180;-78
2022/10/18 09:58:00;;;;;;;;;12.00;10.67;;;;;;;;5047906;28;61727;-79
2022/10/18 10:00:32;;;;;;;;;8.00;7.67;;;;;;;;5047329;28;61825;-79
2022/10/18 10:02:59;;;;;;;;;12.67;7.00;;;;;;;;5029445;28;61933;-78
2022/10/18 10:05:24;;;;;;;;;23.75;22.50;;;;;;;;5029359;28;61809;-78
2022/10/18 10:07:57;;;;;;;;;7.67;7.67;;;;;;;;5047672;28;61698;-79
2022/10/18 10:10:23;;;;;;;;;9.00;7.67;;;;;;;;5046806;28;62008;-77
2022/10/18 10:13:07;;;;;;;;;7.33;5.33;;;;;;;;5047700;28;62390;-78
2022/10/18 10:15:35;;;;;;;;;10.00;10.00;;;;;;;;5047596;28;61696;-78
2022/10/18 10:18:00;;;;;;;;;10.00;10.00;;;;;;;;5029746;28;61848;-80
2022/10/18 10:20:45;;;;;;;;;10.00;8.00;;;;;;;;5046122;28;62747;-79
2022/10/18 10:23:31;;;;;;;;;6.33;6.33;;;;;;;;5046549;28;61766;-79
2022/10/18 10:26:05;;;;;;;;;4.00;4.00;;;;;;;;5047259;28;61863;-80
2022/10/18 10:28:33;;;;;;;;;6.67;6.67;;;;;;;;5047475;28;61680;-80
2022/10/18 10:31:16;;;;;;;;;7.67;5.00;;;;;;;;5025317;28;63801;-81
2022/10/18 10:33:43;;;;;;;;;9.33;5.67;;;;;;;;5043929;28;61703;-80
2022/10/18 10:36:16;;;;;;;;;6.00;4.33;;;;;;;;5026314;28;62048;-80
2022/10/18 10:38:41;;;;;;;;;8.00;6.33;;;;;;;;5006007;28;62158;-80
2022/10/18 10:41:17;;;;;;;;;11.00;5.67;;;;;;;;5037446;28;62666;-81
2022/10/18 10:43:44;;;;;;;;;3.67;3.67;;;;;;;;5025978;28;61828;-80
2022/10/18 10:46:14;;;;;;;;;8.00;6.00;;;;;;;;5044025;28;62067;-80
2022/10/18 10:48:48;;;;;;;;;7.00;5.67;;;;;;;;5025776;28;61732;-81
2022/10/18 10:51:14;;;;;;;;;5.67;5.33;;;;;;;;5043240;28;61847;-81
2022/10/18 10:54:03;;;;;;;;;7.67;7.67;;;;;;;;5043238;28;62203;-81
2022/10/18 10:56:34;;;;;;;;;7.00;5.67;;;;;;;;5047922;28;61826;-80
2022/10/18 10:59:19;;;;;;;;;6.67;6.00;;;;;;;;5045513;28;61807;-80
2022/10/18 11:01:48;;;;;;;;;6.00;6.00;;;;;;;;5044299;28;65178;-81
2022/10/18 11:04:27;;;;;;;;;7.67;7.67;;;;;;;;5063631;28;61766;-81
2022/10/18 11:06:58;;;;;;;;;10.00;6.00;;;;;;;;5063496;28;61793;-81
2022/10/18 11:09:28;;;;;;;;;6.00;4.67;;;;;;;;5064003;28;61906;-80
2022/10/18 11:12:00;;;;;;;;;5.00;5.00;;;;;;;;5044783;28;63961;-81
2022/10/18 11:14:28;;;;;;;;;4.00;4.00;;;;;;;;5063797;28;61956;-80
2022/10/18 11:17:12;;;;;;;;;6.00;6.00;;;;;;;;5063522;28;61794;-81
2022/10/18 11:19:38;;;;;;;;;7.00;4.33;;;;;;;;5063434;28;61754;-81
2022/10/18 11:22:05;;;;;;;;;5.00;4.00;;;;;;;;5062602;28;61790;-81
2022/10/18 11:24:30;;;;;;;;;4.67;4.67;;;;;;;;5063438;28;61800;-81
2022/10/18 11:27:08;;;;;;;;;2.33;2.33;;;;;;;;5061117;28;61695;-81
2022/10/18 11:30:00;;;;;;;;;8.67;3.00;;;;;;;;5043758;28;62162;-81
2022/10/18 11:32:40;;;;;;;;;3.00;3.00;;;;;;;;5039482;28;61892;-81
2022/10/18 11:35:21;;;;;;;;;2.67;2.67;;;;;;;;5043005;28;62025;-81
2022/10/18 11:38:04;;;;;;;;;3.67;2.67;;;;;;;;5021785;28;61835;-81
2022/10/18 11:40:36;;;;;;;;;3.00;3.00;;;;;;;;5023515;28;61887;-81
2022/10/18 11:43:20;;;;;;;;;1.67;0.33;;;;;;;;5022134;28;62651;-82
2022/10/18 11:46:24;;;;;;;;;3.67;2.67;;;;;;;;5023064;28;61768;-81
2022/10/18 11:48:52;;;;;;;;;2.33;2.00;;;;;;;;4980858;28;61910;-82
2022/10/18 11:51:29;;;;;;;;;2.00;2.00;;;;;;;;4980823;28;62173;-81
2022/10/18 11:54:01;;;;;;;;;2.00;0.67;;;;;;;;4979953;28;61772;-82
2022/10/18 11:56:26;;;;;;;;;1.00;1.00;;;;;;;;4987003;28;61923;-81
2022/10/18 11:59:02;;;;;;;;;0.67;0.67;;;;;;;;4984183;28;61995;-81
2022/10/18 12:01:27;;;;;;;;;0.33;0.33;;;;;;;;5001011;28;61815;-81
2022/10/18 12:03:53;;;;;;;;;1.67;0.67;;;;;;;;4999989;28;62522;-81
2022/10/18 12:06:21;;;;;;;;;0.00;0.00;;;;;;;;5000488;28;62086;-81
2022/10/18 12:09:06;;;;;;;;;0.33;0.33;;;;;;;;5000767;28;61769;-82
2022/10/18 12:11:35;;;;;;;;;2.00;0.67;;;;;;;;4996937;28;61746;-81
2022/10/18 12:14:11;;;;;;;;;1.00;1.00;;;;;;;;4999465;28;62898;-82
2022/10/18 12:16:39;;;;;;;;;0.33;0.33;;;;;;;;5000385;28;61829;-81
2022/10/18 12:19:11;;;;;;;;;0.00;0.00;;;;;;;;5011821;28;61655;-81
2022/10/18 12:21:37;;;;;;;;;0.00;0.00;;;;;;;;5042423;28;61904;-81
2022/10/18 12:24:17;;;;;;;;;0.00;0.00;;;;;;;;5023670;28;64120;-82
2022/10/18 12:26:43;;;;;;;;;1.00;1.00;;;;;;;;5024515;28;61954;-82
2022/10/18 12:29:27;;;;;;;;;1.67;0.33;;;;;;;;5041995;28;62262;-82
2022/10/18 12:32:02;;;;;;;;;0.33;0.33;;;;;;;;5042270;28;62180;-82
2022/10/18 12:34:31;;;;;;;;;0.33;0.33;;;;;;;;5041379;28;61704;-81
2022/10/18 12:36:57;;;;;;;;;1.00;1.00;;;;;;;;5020598;28;61736;-82
2022/10/18 12:39:42;;;;;;;;;3.67;2.00;;;;;;;;5020678;28;61751;-82
2022/10/18 12:42:17;;;;;;;;;0.67;0.67;;;;;;;;5021854;28;62319;-81
2022/10/18 12:44:42;;;;;;;;;0.00;0.00;;;;;;;;5003643;28;65001;-81
2022/10/18 12:47:19;;;;;;;;;1.33;1.00;;;;;;;;5021852;28;61771;-81
2022/10/18 12:49:54;;;;;;;;;1.00;0.67;;;;;;;;5021727;28;61740;-81
2022/10/18 12:52:21;;;;;;;;;0.00;0.00;;;;;;;;5022189;28;61969;-82
2022/10/18 12:55:01;;;;;;;;;1.33;0.67;;;;;;;;5002827;28;63667;-82
2022/10/18 12:57:46;;;;;;;;;0.00;0.00;;;;;;;;5022161;28;61907;-82
2022/10/18 13:00:31;;;;;;;;;1.00;1.00;;;;;;;;5003634;28;62049;-81
2022/10/18 13:03:12;;;;;;;;;1.00;0.00;;;;;;;;5021939;28;62176;-81
2022/10/18 13:05:46;;;;;;;;;1.00;1.00;;;;;;;;5003214;28;63353;-81
2022/10/18 13:08:32;;;;;;;;;1.00;1.00;;;;;;;;5021781;28;62164;-81
2022/10/18 13:11:00;;;;;;;;;1.00;1.00;;;;;;;;5030575;28;61918;-81
2022/10/18 13:13:35;;;;;;;;;1.00;1.00;;;;;;;;5024073;28;62079;-81
2022/10/18 13:16:03;;;;;;;;;1.00;1.00;;;;;;;;5041141;28;62816;-81
2022/10/18 13:18:42;;;;;;;;;1.67;0.67;;;;;;;;5041260;28;61760;-81
2022/10/18 13:21:10;;;;;;;;;1.00;1.00;;;;;;;;5041590;28;61787;-82
2022/10/18 13:23:58;;;;;;;;;1.00;1.00;;;;;;;;5041840;28;61822;-81
2022/10/18 13:26:35;;;;;;;;;1.67;1.67;;;;;;;;5041045;28;62058;-81
2022/10/18 13:29:08;;;;;;;;;1.00;1.00;;;;;;;;5041197;28;61731;-81
2022/10/18 13:31:43;;;;;;;;;0.00;0.00;;;;;;;;5041376;28;61894;-81
2022/10/18 13:34:21;;;;;;;;;1.33;1.33;;;;;;;;5041425;28;61755;-81
2022/10/18 13:37:03;;;;;;;;;2.33;2.33;;;;;;;;5019485;28;63808;-81
2022/10/18 13:39:30;;;;;;;;;1.00;1.00;;;;;;;;5021616;28;61715;-81
2022/10/18 13:41:55;;;;;;;;;2.33;0.67;;;;;;;;5003698;28;61891;-81
2022/10/18 13:44:20;;;;;;;;;0.67;0.67;;;;;;;;5003608;28;62028;-81
2022/10/18 13:46:45;;;;;;;;;4.00;2.00;;;;;;;;5020986;28;62476;-81
2022/10/18 13:49:26;;;;;;;;;2.00;2.00;;;;;;;;5003269;28;61789;-81
2022/10/18 13:52:10;;;;;;;;;2.00;2.00;;;;;;;;5003486;28;61843;-81
2022/10/18 13:54:41;;;;;;;;;1.67;1.67;;;;;;;;5021464;28;62084;-81
2022/10/18 13:57:13;;;;;;;;;2.00;2.00;;;;;;;;5055805;28;62782;-81
2022/10/18 13:59:54;;;;;;;;;1.00;1.00;;;;;;;;5061117;28;61833;-81
2022/10/18 14:02:32;;;;;;;;;3.33;1.33;;;;;;;;5061119;28;61980;-81
2022/10/18 14:05:12;;;;;;;;;2.00;1.33;;;;;;;;5062350;28;61836;-81
2022/10/18 14:07:39;;;;;;;;;2.67;2.00;;;;;;;;5064340;28;62003;-81
2022/10/18 14:10:11;;;;;;;;;3.33;1.00;;;;;;;;5046385;28;61906;-81
2022/10/18 14:12:44;;;;;;;;;4.00;3.00;;;;;;;;5064856;28;61848;-81
2022/10/18 14:15:16;;;;;;;;;2.00;2.00;;;;;;;;5064572;28;61704;-81
2022/10/18 14:17:45;;;;;;;;;0.00;0.00;;;;;;;;5045930;28;63176;-81
2022/10/18 14:20:19;;;;;;;;;1.33;1.33;;;;;;;;5045828;28;61801;-81
2022/10/18 14:23:00;;;;;;;;;1.00;1.00;;;;;;;;5064782;28;61878;-81
2022/10/18 14:25:28;;;;;;;;;2.00;2.00;;;;;;;;5064227;28;62013;-81
2022/10/18 14:28:05;;;;;;;;;2.00;1.00;;;;;;;;5057507;28;61923;-81
2022/10/18 14:30:30;;;;;;;;;1.33;1.00;;;;;;;;5043867;28;61669;-81
2022/10/18 14:32:58;;;;;;;;;1.67;1.67;;;;;;;;5044361;28;61770;-81
2022/10/18 14:35:25;;;;;;;;;1.00;1.00;;;;;;;;5036453;28;62063;-80
2022/10/18 14:37:51;;;;;;;;;1.33;1.00;;;;;;;;5022199;28;63803;-81
2022/10/18 14:40:29;;;;;;;;;3.67;2.67;;;;;;;;5025430;28;62057;-81